sensor_id;sensor_type;location;lat;lon;timestamp;P1;durP1;ratioP1;P2;durP2;ratioP2
18125;SDS011;53956;52.442;13.284;2023-09-19T00:01:39;4.97;;;1.90;;
18125;SDS011;53956;52.442;13.284;2023-09-19T00:04:07;4.05;;;2.00;;
18125;SDS011;53956;52.442;13.284;2023-09-19T00:06:34;5.47;;;2.03;;
18125;SDS011;53956;52.442;13.284;2023-09-19T00:09:01;6.50;;;2.10;;
18125;SDS011;53956;52.442;13.284;2023-09-19T00:11:28;3.30;;;2.00;;
18125;SDS011;53956;52.442;13.284;2023-09-19T00:13:56;4.88;;;2.15;;
18125;SDS011;53956;52.442;13.284;2023-09-19T00:16:24;3.17;;;2.00;;
18125;SDS011;53956;52.442;13.284;2023-09-19T00:18:51;3.65;;;1.85;;
18125;SDS011;53956;52.442;13.284;2023-09-19T00:21:19;2.70;;;1.90;;
18125;SDS011;53956;52.442;13.284;2023-09-19T00:23:47;3.85;;;1.83;;
18125;SDS011;53956;52.442;13.284;2023-09-19T00:26:14;6.15;;;2.38;;
18125;SDS011;53956;52.442;13.284;2023-09-19T00:28:46;2.70;;;2.03;;
18125;SDS011;53956;52.442;13.284;2023-09-19T00:31:13;5.00;;;1.98;;
18125;SDS011;53956;52.442;13.284;2023-09-19T00:33:39;4.70;;;1.98;;
18125;SDS011;53956;52.442;13.284;2023-09-19T00:36:06;5.00;;;1.92;;
18125;SDS011;53956;52.442;13.284;2023-09-19T00:38:34;3.50;;;1.88;;
18125;SDS011;53956;52.442;13.284;2023-09-19T00:41:01;5.00;;;2.13;;
18125;SDS011;53956;52.442;13.284;2023-09-19T00:43:28;4.40;;;1.90;;
18125;SDS011;53956;52.442;13.284;2023-09-19T00:45:59;5.50;;;2.17;;
18125;SDS011;53956;52.442;13.284;2023-09-19T00:48:28;6.40;;;2.35;;
18125;SDS011;53956;52.442;13.284;2023-09-19T00:50:55;6.15;;;2.20;;
18125;SDS011;53956;52.442;13.284;2023-09-19T00:53:25;3.28;;;2.08;;
18125;SDS011;53956;52.442;13.284;2023-09-19T00:55:54;6.05;;;2.00;;
18125;SDS011;53956;52.442;13.284;2023-09-19T00:58:22;4.47;;;1.90;;
18125;SDS011;53956;52.442;13.284;2023-09-19T01:00:49;5.93;;;2.03;;
18125;SDS011;53956;52.442;13.284;2023-09-19T01:03:18;6.22;;;2.58;;
18125;SDS011;53956;52.442;13.284;2023-09-19T01:05:45;5.82;;;1.88;;
18125;SDS011;53956;52.442;13.284;2023-09-19T01:08:11;3.58;;;2.08;;
18125;SDS011;53956;52.442;13.284;2023-09-19T01:10:38;4.82;;;2.00;;
18125;SDS011;53956;52.442;13.284;2023-09-19T01:13:16;4.20;;;2.10;;
18125;SDS011;53956;52.442;13.284;2023-09-19T01:15:51;5.13;;;2.17;;
18125;SDS011;53956;52.442;13.284;2023-09-19T01:18:27;2.85;;;1.65;;
18125;SDS011;53956;52.442;13.284;2023-09-19T01:21:00;3.97;;;2.10;;
18125;SDS011;53956;52.442;13.284;2023-09-19T01:23:38;4.35;;;1.67;;
18125;SDS011;53956;52.442;13.284;2023-09-19T01:26:21;4.00;;;2.00;;
18125;SDS011;53956;52.442;13.284;2023-09-19T01:29:06;5.68;;;2.08;;
18125;SDS011;53956;52.442;13.284;2023-09-19T01:31:51;4.95;;;1.92;;
18125;SDS011;53956;52.442;13.284;2023-09-19T01:34:20;4.38;;;1.95;;
18125;SDS011;53956;52.442;13.284;2023-09-19T01:36:46;4.35;;;2.08;;
18125;SDS011;53956;52.442;13.284;2023-09-19T01:39:13;4.18;;;1.95;;
18125;SDS011;53956;52.442;13.284;2023-09-19T01:44:31;4.78;;;2.00;;
18125;SDS011;53956;52.442;13.284;2023-09-19T01:47:08;5.72;;;2.10;;
18125;SDS011;53956;52.442;13.284;2023-09-19T01:49:44;5.35;;;2.10;;
18125;SDS011;53956;52.442;13.284;2023-09-19T01:52:23;4.63;;;2.08;;
18125;SDS011;53956;52.442;13.284;2023-09-19T01:54:59;4.82;;;2.13;;
18125;SDS011;53956;52.442;13.284;2023-09-19T01:57:32;3.97;;;1.88;;
18125;SDS011;53956;52.442;13.284;2023-09-19T02:00:05;4.40;;;1.80;;
18125;SDS011;53956;52.442;13.284;2023-09-19T02:02:45;2.60;;;1.80;;
18125;SDS011;53956;52.442;13.284;2023-09-19T02:05:13;2.22;;;1.88;;
18125;SDS011;53956;52.442;13.284;2023-09-19T02:07:48;4.47;;;2.25;;
18125;SDS011;53956;52.442;13.284;2023-09-19T02:10:16;3.80;;;2.00;;
18125;SDS011;53956;52.442;13.284;2023-09-19T02:12:43;2.72;;;2.13;;
18125;SDS011;53956;52.442;13.284;2023-09-19T02:15:12;3.72;;;2.03;;
18125;SDS011;53956;52.442;13.284;2023-09-19T02:17:41;5.03;;;2.17;;
18125;SDS011;53956;52.442;13.284;2023-09-19T02:20:09;4.05;;;2.00;;
18125;SDS011;53956;52.442;13.284;2023-09-19T02:22:40;3.13;;;1.80;;
18125;SDS011;53956;52.442;13.284;2023-09-19T02:25:07;4.63;;;2.05;;
18125;SDS011;53956;52.442;13.284;2023-09-19T02:27:35;4.25;;;1.83;;
18125;SDS011;53956;52.442;13.284;2023-09-19T02:30:02;3.60;;;2.00;;
18125;SDS011;53956;52.442;13.284;2023-09-19T02:32:31;5.60;;;2.10;;
18125;SDS011;53956;52.442;13.284;2023-09-19T02:35:00;5.43;;;2.20;;
18125;SDS011;53956;52.442;13.284;2023-09-19T02:37:30;3.20;;;1.90;;
18125;SDS011;53956;52.442;13.284;2023-09-19T02:39:57;3.17;;;1.77;;
18125;SDS011;53956;52.442;13.284;2023-09-19T02:42:24;3.58;;;1.90;;
18125;SDS011;53956;52.442;13.284;2023-09-19T02:44:50;5.93;;;2.00;;
18125;SDS011;53956;52.442;13.284;2023-09-19T02:47:17;3.90;;;1.98;;
18125;SDS011;53956;52.442;13.284;2023-09-19T02:49:44;8.10;;;2.00;;
18125;SDS011;53956;52.442;13.284;2023-09-19T02:52:11;4.00;;;2.00;;
18125;SDS011;53956;52.442;13.284;2023-09-19T02:54:40;3.38;;;1.95;;
18125;SDS011;53956;52.442;13.284;2023-09-19T02:57:10;4.03;;;2.10;;
18125;SDS011;53956;52.442;13.284;2023-09-19T02:59:38;3.95;;;2.20;;
18125;SDS011;53956;52.442;13.284;2023-09-19T03:02:07;5.68;;;2.10;;
18125;SDS011;53956;52.442;13.284;2023-09-19T03:04:34;4.97;;;2.10;;
18125;SDS011;53956;52.442;13.284;2023-09-19T03:07:01;4.53;;;1.90;;
18125;SDS011;53956;52.442;13.284;2023-09-19T03:09:29;5.43;;;2.00;;
18125;SDS011;53956;52.442;13.284;2023-09-19T03:11:57;4.35;;;2.20;;
18125;SDS011;53956;52.442;13.284;2023-09-19T03:14:24;3.92;;;1.83;;
18125;SDS011;53956;52.442;13.284;2023-09-19T03:16:56;4.82;;;1.95;;
18125;SDS011;53956;52.442;13.284;2023-09-19T03:19:22;4.95;;;1.98;;
18125;SDS011;53956;52.442;13.284;2023-09-19T03:21:51;5.38;;;1.90;;
18125;SDS011;53956;52.442;13.284;2023-09-19T03:24:19;3.95;;;2.00;;
18125;SDS011;53956;52.442;13.284;2023-09-19T03:26:45;5.50;;;2.00;;
18125;SDS011;53956;52.442;13.284;2023-09-19T03:29:15;4.47;;;2.10;;
18125;SDS011;53956;52.442;13.284;2023-09-19T03:31:43;2.97;;;1.90;;
18125;SDS011;53956;52.442;13.284;2023-09-19T03:34:11;4.25;;;2.00;;
18125;SDS011;53956;52.442;13.284;2023-09-19T03:36:38;4.53;;;2.00;;
18125;SDS011;53956;52.442;13.284;2023-09-19T03:39:05;5.15;;;1.80;;
18125;SDS011;53956;52.442;13.284;2023-09-19T03:41:32;3.20;;;1.73;;
18125;SDS011;53956;52.442;13.284;2023-09-19T03:44:01;7.78;;;1.90;;
18125;SDS011;53956;52.442;13.284;2023-09-19T03:46:29;4.78;;;1.83;;
18125;SDS011;53956;52.442;13.284;2023-09-19T03:48:58;5.22;;;1.90;;
18125;SDS011;53956;52.442;13.284;2023-09-19T03:51:25;6.35;;;2.13;;
18125;SDS011;53956;52.442;13.284;2023-09-19T03:53:51;3.80;;;1.67;;
18125;SDS011;53956;52.442;13.284;2023-09-19T03:56:18;2.80;;;1.55;;
18125;SDS011;53956;52.442;13.284;2023-09-19T03:58:45;3.70;;;1.80;;
18125;SDS011;53956;52.442;13.284;2023-09-19T04:01:11;3.42;;;1.48;;
18125;SDS011;53956;52.442;13.284;2023-09-19T04:03:40;3.15;;;1.63;;
18125;SDS011;53956;52.442;13.284;2023-09-19T04:06:13;2.47;;;1.70;;
18125;SDS011;53956;52.442;13.284;2023-09-19T04:08:40;3.72;;;1.58;;
18125;SDS011;53956;52.442;13.284;2023-09-19T04:11:07;3.85;;;1.63;;
18125;SDS011;53956;52.442;13.284;2023-09-19T04:13:33;3.95;;;1.45;;
18125;SDS011;53956;52.442;13.284;2023-09-19T04:16:00;3.65;;;1.55;;
18125;SDS011;53956;52.442;13.284;2023-09-19T04:18:27;3.55;;;1.60;;
18125;SDS011;53956;52.442;13.284;2023-09-19T04:20:57;2.83;;;1.50;;
18125;SDS011;53956;52.442;13.284;2023-09-19T04:23:24;4.28;;;1.50;;
18125;SDS011;53956;52.442;13.284;2023-09-19T04:25:51;2.38;;;1.38;;
18125;SDS011;53956;52.442;13.284;2023-09-19T04:28:18;2.22;;;1.40;;
18125;SDS011;53956;52.442;13.284;2023-09-19T04:30:45;2.20;;;1.60;;
18125;SDS011;53956;52.442;13.284;2023-09-19T04:33:11;2.53;;;1.40;;
18125;SDS011;53956;52.442;13.284;2023-09-19T04:35:39;2.13;;;1.55;;
18125;SDS011;53956;52.442;13.284;2023-09-19T04:38:08;2.58;;;1.38;;
18125;SDS011;53956;52.442;13.284;2023-09-19T04:40:35;3.60;;;1.60;;
18125;SDS011;53956;52.442;13.284;2023-09-19T04:43:04;4.45;;;1.85;;
18125;SDS011;53956;52.442;13.284;2023-09-19T04:45:32;1.95;;;1.42;;
18125;SDS011;53956;52.442;13.284;2023-09-19T04:47:59;3.20;;;1.50;;
18125;SDS011;53956;52.442;13.284;2023-09-19T04:50:26;6.85;;;1.80;;
18125;SDS011;53956;52.442;13.284;2023-09-19T04:52:53;2.70;;;1.50;;
18125;SDS011;53956;52.442;13.284;2023-09-19T04:55:21;2.17;;;1.70;;
18125;SDS011;53956;52.442;13.284;2023-09-19T04:57:48;2.17;;;1.40;;
18125;SDS011;53956;52.442;13.284;2023-09-19T05:00:15;3.22;;;1.80;;
18125;SDS011;53956;52.442;13.284;2023-09-19T05:02:45;2.63;;;1.60;;
18125;SDS011;53956;52.442;13.284;2023-09-19T05:05:12;5.00;;;1.63;;
18125;SDS011;53956;52.442;13.284;2023-09-19T05:07:40;3.13;;;1.48;;
18125;SDS011;53956;52.442;13.284;2023-09-19T05:10:08;3.97;;;1.83;;
18125;SDS011;53956;52.442;13.284;2023-09-19T05:12:38;4.00;;;1.70;;
18125;SDS011;53956;52.442;13.284;2023-09-19T05:15:05;3.90;;;1.60;;
18125;SDS011;53956;52.442;13.284;2023-09-19T05:17:33;2.55;;;1.60;;
18125;SDS011;53956;52.442;13.284;2023-09-19T05:20:00;3.03;;;1.70;;
18125;SDS011;53956;52.442;13.284;2023-09-19T05:22:40;2.55;;;1.67;;
18125;SDS011;53956;52.442;13.284;2023-09-19T05:25:08;3.30;;;1.70;;
18125;SDS011;53956;52.442;13.284;2023-09-19T05:27:35;3.50;;;1.70;;
18125;SDS011;53956;52.442;13.284;2023-09-19T05:30:03;3.58;;;1.70;;
18125;SDS011;53956;52.442;13.284;2023-09-19T05:32:32;2.95;;;1.70;;
18125;SDS011;53956;52.442;13.284;2023-09-19T05:34:58;3.03;;;1.50;;
18125;SDS011;53956;52.442;13.284;2023-09-19T05:37:25;2.38;;;1.70;;
18125;SDS011;53956;52.442;13.284;2023-09-19T05:39:52;1.88;;;1.70;;
18125;SDS011;53956;52.442;13.284;2023-09-19T05:42:19;3.00;;;1.60;;
18125;SDS011;53956;52.442;13.284;2023-09-19T05:44:46;2.25;;;1.70;;
18125;SDS011;53956;52.442;13.284;2023-09-19T05:47:13;3.85;;;1.70;;
18125;SDS011;53956;52.442;13.284;2023-09-19T05:49:40;2.50;;;1.50;;
18125;SDS011;53956;52.442;13.284;2023-09-19T05:52:07;4.25;;;1.50;;
18125;SDS011;53956;52.442;13.284;2023-09-19T05:54:34;2.17;;;1.52;;
18125;SDS011;53956;52.442;13.284;2023-09-19T05:57:00;5.10;;;1.88;;
18125;SDS011;53956;52.442;13.284;2023-09-19T05:59:27;2.17;;;1.80;;
18125;SDS011;53956;52.442;13.284;2023-09-19T06:01:54;3.60;;;1.98;;
18125;SDS011;53956;52.442;13.284;2023-09-19T06:04:22;3.58;;;1.65;;
18125;SDS011;53956;52.442;13.284;2023-09-19T06:06:49;3.80;;;1.67;;
18125;SDS011;53956;52.442;13.284;2023-09-19T06:09:16;4.28;;;1.55;;
18125;SDS011;53956;52.442;13.284;2023-09-19T06:11:42;2.97;;;1.60;;
18125;SDS011;53956;52.442;13.284;2023-09-19T06:14:09;4.45;;;1.80;;
18125;SDS011;53956;52.442;13.284;2023-09-19T06:16:36;2.70;;;1.40;;
18125;SDS011;53956;52.442;13.284;2023-09-19T06:19:04;2.47;;;1.60;;
18125;SDS011;53956;52.442;13.284;2023-09-19T06:21:35;4.32;;;1.30;;
18125;SDS011;53956;52.442;13.284;2023-09-19T06:24:02;4.22;;;1.83;;
18125;SDS011;53956;52.442;13.284;2023-09-19T06:26:29;4.40;;;1.67;;
18125;SDS011;53956;52.442;13.284;2023-09-19T06:28:56;3.92;;;1.48;;
18125;SDS011;53956;52.442;13.284;2023-09-19T06:31:22;2.53;;;1.52;;
18125;SDS011;53956;52.442;13.284;2023-09-19T06:33:51;3.35;;;1.63;;
18125;SDS011;53956;52.442;13.284;2023-09-19T06:36:18;3.20;;;1.58;;
18125;SDS011;53956;52.442;13.284;2023-09-19T06:38:46;2.53;;;1.60;;
18125;SDS011;53956;52.442;13.284;2023-09-19T06:41:13;3.45;;;1.55;;
18125;SDS011;53956;52.442;13.284;2023-09-19T06:43:42;2.78;;;1.67;;
18125;SDS011;53956;52.442;13.284;2023-09-19T06:46:09;2.67;;;1.67;;
18125;SDS011;53956;52.442;13.284;2023-09-19T06:48:38;4.05;;;1.50;;
18125;SDS011;53956;52.442;13.284;2023-09-19T06:51:04;3.90;;;1.45;;
18125;SDS011;53956;52.442;13.284;2023-09-19T06:53:31;4.53;;;1.38;;
18125;SDS011;53956;52.442;13.284;2023-09-19T06:56:01;3.70;;;1.77;;
18125;SDS011;53956;52.442;13.284;2023-09-19T06:58:28;3.08;;;1.30;;
18125;SDS011;53956;52.442;13.284;2023-09-19T07:00:55;4.68;;;1.65;;
18125;SDS011;53956;52.442;13.284;2023-09-19T07:03:22;2.35;;;1.38;;
18125;SDS011;53956;52.442;13.284;2023-09-19T07:05:51;3.35;;;1.40;;
18125;SDS011;53956;52.442;13.284;2023-09-19T07:08:21;4.20;;;1.60;;
18125;SDS011;53956;52.442;13.284;2023-09-19T07:10:48;2.95;;;1.50;;
18125;SDS011;53956;52.442;13.284;2023-09-19T07:13:15;4.78;;;1.50;;
18125;SDS011;53956;52.442;13.284;2023-09-19T07:15:43;5.03;;;1.83;;
18125;SDS011;53956;52.442;13.284;2023-09-19T07:18:12;7.32;;;1.55;;
18125;SDS011;53956;52.442;13.284;2023-09-19T07:20:40;8.10;;;1.70;;
18125;SDS011;53956;52.442;13.284;2023-09-19T07:23:10;5.75;;;1.70;;
18125;SDS011;53956;52.442;13.284;2023-09-19T07:25:39;2.95;;;1.83;;
18125;SDS011;53956;52.442;13.284;2023-09-19T07:28:06;6.15;;;1.80;;
18125;SDS011;53956;52.442;13.284;2023-09-19T07:30:35;4.40;;;2.13;;
18125;SDS011;53956;52.442;13.284;2023-09-19T07:33:02;3.63;;;2.00;;
18125;SDS011;53956;52.442;13.284;2023-09-19T07:35:30;6.25;;;2.22;;
18125;SDS011;53956;52.442;13.284;2023-09-19T07:37:57;5.18;;;2.58;;
18125;SDS011;53956;52.442;13.284;2023-09-19T07:40:26;6.85;;;2.13;;
18125;SDS011;53956;52.442;13.284;2023-09-19T07:42:54;8.98;;;2.40;;
18125;SDS011;53956;52.442;13.284;2023-09-19T07:45:20;6.00;;;2.28;;
18125;SDS011;53956;52.442;13.284;2023-09-19T07:47:49;6.13;;;2.47;;
18125;SDS011;53956;52.442;13.284;2023-09-19T07:50:17;5.05;;;2.40;;
18125;SDS011;53956;52.442;13.284;2023-09-19T07:52:44;5.22;;;2.60;;
18125;SDS011;53956;52.442;13.284;2023-09-19T07:55:11;4.47;;;2.00;;
18125;SDS011;53956;52.442;13.284;2023-09-19T07:57:42;5.13;;;2.30;;
18125;SDS011;53956;52.442;13.284;2023-09-19T08:00:09;7.45;;;2.28;;
18125;SDS011;53956;52.442;13.284;2023-09-19T08:02:37;5.45;;;2.30;;
18125;SDS011;53956;52.442;13.284;2023-09-19T08:05:06;4.55;;;2.30;;
18125;SDS011;53956;52.442;13.284;2023-09-19T08:07:35;4.22;;;2.10;;
18125;SDS011;53956;52.442;13.284;2023-09-19T08:10:02;3.97;;;2.00;;
18125;SDS011;53956;52.442;13.284;2023-09-19T08:12:29;3.28;;;2.08;;
18125;SDS011;53956;52.442;13.284;2023-09-19T08:14:57;6.47;;;2.20;;
18125;SDS011;53956;52.442;13.284;2023-09-19T08:17:24;7.35;;;2.40;;
18125;SDS011;53956;52.442;13.284;2023-09-19T08:19:50;8.35;;;2.30;;
18125;SDS011;53956;52.442;13.284;2023-09-19T08:22:19;7.63;;;2.60;;
18125;SDS011;53956;52.442;13.284;2023-09-19T08:24:46;7.28;;;2.60;;
18125;SDS011;53956;52.442;13.284;2023-09-19T08:27:14;6.88;;;2.50;;
18125;SDS011;53956;52.442;13.284;2023-09-19T08:29:44;4.28;;;2.47;;
18125;SDS011;53956;52.442;13.284;2023-09-19T08:32:12;5.25;;;2.58;;
18125;SDS011;53956;52.442;13.284;2023-09-19T08:34:39;6.88;;;2.38;;
18125;SDS011;53956;52.442;13.284;2023-09-19T08:37:06;6.88;;;2.53;;
18125;SDS011;53956;52.442;13.284;2023-09-19T08:39:34;6.03;;;2.30;;
18125;SDS011;53956;52.442;13.284;2023-09-19T08:42:02;9.13;;;2.20;;
18125;SDS011;53956;52.442;13.284;2023-09-19T08:44:29;6.72;;;2.40;;
18125;SDS011;53956;52.442;13.284;2023-09-19T08:46:58;6.65;;;2.30;;
18125;SDS011;53956;52.442;13.284;2023-09-19T08:49:33;7.10;;;2.28;;
18125;SDS011;53956;52.442;13.284;2023-09-19T08:52:08;6.65;;;2.50;;
18125;SDS011;53956;52.442;13.284;2023-09-19T08:54:43;6.20;;;2.42;;
18125;SDS011;53956;52.442;13.284;2023-09-19T08:57:11;5.90;;;2.33;;
18125;SDS011;53956;52.442;13.284;2023-09-19T08:59:46;5.95;;;2.45;;
18125;SDS011;53956;52.442;13.284;2023-09-19T09:02:16;5.53;;;2.17;;
18125;SDS011;53956;52.442;13.284;2023-09-19T09:04:44;7.68;;;2.78;;
18125;SDS011;53956;52.442;13.284;2023-09-19T09:07:13;4.93;;;2.50;;
18125;SDS011;53956;52.442;13.284;2023-09-19T09:09:43;10.57;;;2.83;;
18125;SDS011;53956;52.442;13.284;2023-09-19T09:12:11;7.13;;;2.55;;
18125;SDS011;53956;52.442;13.284;2023-09-19T09:14:38;6.80;;;2.83;;
18125;SDS011;53956;52.442;13.284;2023-09-19T09:17:06;7.80;;;2.95;;
18125;SDS011;53956;52.442;13.284;2023-09-19T09:19:34;9.00;;;3.03;;
18125;SDS011;53956;52.442;13.284;2023-09-19T09:22:07;5.22;;;2.60;;
18125;SDS011;53956;52.442;13.284;2023-09-19T09:24:35;5.82;;;2.50;;
18125;SDS011;53956;52.442;13.284;2023-09-19T09:27:05;9.80;;;3.00;;
18125;SDS011;53956;52.442;13.284;2023-09-19T09:29:41;10.32;;;3.22;;
18125;SDS011;53956;52.442;13.284;2023-09-19T09:32:19;7.57;;;2.78;;
18125;SDS011;53956;52.442;13.284;2023-09-19T09:34:47;5.72;;;2.83;;
18125;SDS011;53956;52.442;13.284;2023-09-19T09:37:16;8.27;;;3.05;;
18125;SDS011;53956;52.442;13.284;2023-09-19T09:39:48;6.95;;;2.92;;
18125;SDS011;53956;52.442;13.284;2023-09-19T09:42:29;8.98;;;3.10;;
18125;SDS011;53956;52.442;13.284;2023-09-19T09:45:15;7.75;;;2.90;;
18125;SDS011;53956;52.442;13.284;2023-09-19T09:47:43;7.20;;;2.45;;
18125;SDS011;53956;52.442;13.284;2023-09-19T09:50:23;8.60;;;2.80;;
18125;SDS011;53956;52.442;13.284;2023-09-19T09:52:54;5.75;;;2.72;;
18125;SDS011;53956;52.442;13.284;2023-09-19T09:55:26;6.85;;;2.78;;
18125;SDS011;53956;52.442;13.284;2023-09-19T09:58:01;7.10;;;2.83;;
18125;SDS011;53956;52.442;13.284;2023-09-19T10:00:51;5.55;;;2.60;;
18125;SDS011;53956;52.442;13.284;2023-09-19T10:03:21;6.88;;;2.78;;
18125;SDS011;53956;52.442;13.284;2023-09-19T10:05:59;5.10;;;2.65;;
18125;SDS011;53956;52.442;13.284;2023-09-19T10:08:34;5.57;;;2.95;;
18125;SDS011;53956;52.442;13.284;2023-09-19T10:11:01;7.22;;;2.50;;
18125;SDS011;53956;52.442;13.284;2023-09-19T10:13:43;8.93;;;2.95;;
18125;SDS011;53956;52.442;13.284;2023-09-19T10:16:12;6.05;;;2.50;;
18125;SDS011;53956;52.442;13.284;2023-09-19T10:18:43;8.90;;;2.63;;
18125;SDS011;53956;52.442;13.284;2023-09-19T10:21:12;5.38;;;2.45;;
18125;SDS011;53956;52.442;13.284;2023-09-19T10:23:39;7.10;;;2.80;;
18125;SDS011;53956;52.442;13.284;2023-09-19T10:26:09;6.82;;;2.88;;
18125;SDS011;53956;52.442;13.284;2023-09-19T10:28:36;8.02;;;2.80;;
18125;SDS011;53956;52.442;13.284;2023-09-19T10:31:05;6.50;;;2.60;;
18125;SDS011;53956;52.442;13.284;2023-09-19T10:33:35;5.75;;;2.95;;
18125;SDS011;53956;52.442;13.284;2023-09-19T10:36:03;9.60;;;3.10;;
18125;SDS011;53956;52.442;13.284;2023-09-19T10:38:32;6.10;;;2.60;;
18125;SDS011;53956;52.442;13.284;2023-09-19T10:41:01;7.70;;;2.70;;
18125;SDS011;53956;52.442;13.284;2023-09-19T10:43:29;7.13;;;2.70;;
18125;SDS011;53956;52.442;13.284;2023-09-19T10:46:00;8.18;;;2.60;;
18125;SDS011;53956;52.442;13.284;2023-09-19T10:48:30;9.35;;;2.75;;
18125;SDS011;53956;52.442;13.284;2023-09-19T10:50:58;8.65;;;2.88;;
18125;SDS011;53956;52.442;13.284;2023-09-19T10:53:32;9.50;;;2.97;;
18125;SDS011;53956;52.442;13.284;2023-09-19T10:56:08;7.10;;;2.50;;
18125;SDS011;53956;52.442;13.284;2023-09-19T10:58:42;11.48;;;2.90;;
18125;SDS011;53956;52.442;13.284;2023-09-19T11:01:10;7.40;;;2.58;;
18125;SDS011;53956;52.442;13.284;2023-09-19T11:03:41;9.90;;;2.80;;
18125;SDS011;53956;52.442;13.284;2023-09-19T11:06:09;7.95;;;2.55;;
18125;SDS011;53956;52.442;13.284;2023-09-19T11:08:52;8.20;;;2.58;;
18125;SDS011;53956;52.442;13.284;2023-09-19T11:11:41;7.45;;;2.60;;
18125;SDS011;53956;52.442;13.284;2023-09-19T11:14:14;8.15;;;2.40;;
18125;SDS011;53956;52.442;13.284;2023-09-19T11:23:17;10.57;;;4.28;;
18125;SDS011;53956;52.442;13.284;2023-09-19T11:25:47;9.13;;;3.05;;
18125;SDS011;53956;52.442;13.284;2023-09-19T11:28:30;8.07;;;2.58;;
18125;SDS011;53956;52.442;13.284;2023-09-19T11:30:58;8.35;;;2.78;;
18125;SDS011;53956;52.442;13.284;2023-09-19T11:33:26;9.00;;;2.75;;
18125;SDS011;53956;52.442;13.284;2023-09-19T11:36:00;5.55;;;2.58;;
18125;SDS011;53956;52.442;13.284;2023-09-19T11:41:36;6.57;;;2.40;;
18125;SDS011;53956;52.442;13.284;2023-09-19T11:47:02;7.60;;;2.20;;
18125;SDS011;53956;52.442;13.284;2023-09-19T11:49:30;6.15;;;2.45;;
18125;SDS011;53956;52.442;13.284;2023-09-19T11:52:00;8.70;;;2.40;;
18125;SDS011;53956;52.442;13.284;2023-09-19T11:54:30;7.55;;;2.13;;
18125;SDS011;53956;52.442;13.284;2023-09-19T11:56:58;8.48;;;2.28;;
18125;SDS011;53956;52.442;13.284;2023-09-19T11:59:25;8.00;;;2.20;;
18125;SDS011;53956;52.442;13.284;2023-09-19T12:01:54;6.45;;;2.03;;
18125;SDS011;53956;52.442;13.284;2023-09-19T12:04:36;6.22;;;1.98;;
18125;SDS011;53956;52.442;13.284;2023-09-19T12:07:08;6.88;;;2.13;;
18125;SDS011;53956;52.442;13.284;2023-09-19T12:09:40;5.47;;;2.15;;
18125;SDS011;53956;52.442;13.284;2023-09-19T12:12:09;8.00;;;2.70;;
18125;SDS011;53956;52.442;13.284;2023-09-19T12:14:38;7.47;;;2.13;;
18125;SDS011;53956;52.442;13.284;2023-09-19T12:17:07;6.20;;;2.50;;
18125;SDS011;53956;52.442;13.284;2023-09-19T12:19:34;5.88;;;2.10;;
18125;SDS011;53956;52.442;13.284;2023-09-19T12:22:01;5.50;;;2.05;;
18125;SDS011;53956;52.442;13.284;2023-09-19T12:24:31;8.85;;;2.25;;
18125;SDS011;53956;52.442;13.284;2023-09-19T12:27:02;5.45;;;1.88;;
18125;SDS011;53956;52.442;13.284;2023-09-19T12:29:41;5.97;;;2.25;;
18125;SDS011;53956;52.442;13.284;2023-09-19T12:32:09;5.20;;;1.95;;
18125;SDS011;53956;52.442;13.284;2023-09-19T12:34:36;5.07;;;2.13;;
18125;SDS011;53956;52.442;13.284;2023-09-19T12:37:08;6.53;;;2.45;;
18125;SDS011;53956;52.442;13.284;2023-09-19T12:39:42;6.55;;;1.90;;
18125;SDS011;53956;52.442;13.284;2023-09-19T12:42:13;8.25;;;2.15;;
18125;SDS011;53956;52.442;13.284;2023-09-19T12:44:41;6.85;;;2.20;;
18125;SDS011;53956;52.442;13.284;2023-09-19T12:47:13;6.78;;;2.00;;
18125;SDS011;53956;52.442;13.284;2023-09-19T12:52:42;7.18;;;2.30;;
18125;SDS011;53956;52.442;13.284;2023-09-19T12:55:26;5.63;;;1.88;;
18125;SDS011;53956;52.442;13.284;2023-09-19T12:58:11;4.50;;;1.80;;
18125;SDS011;53956;52.442;13.284;2023-09-19T13:00:40;5.07;;;1.90;;
18125;SDS011;53956;52.442;13.284;2023-09-19T13:03:14;6.68;;;2.28;;
18125;SDS011;53956;52.442;13.284;2023-09-19T13:05:50;6.25;;;1.88;;
18125;SDS011;53956;52.442;13.284;2023-09-19T13:08:20;7.50;;;1.90;;
18125;SDS011;53956;52.442;13.284;2023-09-19T13:11:05;4.63;;;1.80;;
18125;SDS011;53956;52.442;13.284;2023-09-19T13:13:35;10.10;;;2.00;;
18125;SDS011;53956;52.442;13.284;2023-09-19T13:16:03;4.72;;;1.90;;
18125;SDS011;53956;52.442;13.284;2023-09-19T13:18:33;9.10;;;2.03;;
18125;SDS011;53956;52.442;13.284;2023-09-19T13:21:09;5.32;;;1.75;;
18125;SDS011;53956;52.442;13.284;2023-09-19T13:23:37;7.60;;;1.80;;
18125;SDS011;53956;52.442;13.284;2023-09-19T13:26:06;7.95;;;1.70;;
18125;SDS011;53956;52.442;13.284;2023-09-19T13:28:33;6.57;;;1.80;;
18125;SDS011;53956;52.442;13.284;2023-09-19T13:31:00;3.65;;;1.60;;
18125;SDS011;53956;52.442;13.284;2023-09-19T13:33:27;3.95;;;1.90;;
18125;SDS011;53956;52.442;13.284;2023-09-19T13:35:53;5.25;;;1.50;;
18125;SDS011;53956;52.442;13.284;2023-09-19T13:38:22;4.22;;;1.60;;
18125;SDS011;53956;52.442;13.284;2023-09-19T13:40:48;5.57;;;2.10;;
18125;SDS011;53956;52.442;13.284;2023-09-19T13:43:18;5.88;;;1.90;;
18125;SDS011;53956;52.442;13.284;2023-09-19T13:45:47;7.03;;;2.22;;
18125;SDS011;53956;52.442;13.284;2023-09-19T13:48:15;6.03;;;2.15;;
18125;SDS011;53956;52.442;13.284;2023-09-19T13:50:47;6.78;;;2.20;;
18125;SDS011;53956;52.442;13.284;2023-09-19T13:53:14;4.40;;;1.60;;
18125;SDS011;53956;52.442;13.284;2023-09-19T13:55:41;5.47;;;1.73;;
18125;SDS011;53956;52.442;13.284;2023-09-19T13:58:08;5.53;;;1.88;;
18125;SDS011;53956;52.442;13.284;2023-09-19T14:00:37;4.55;;;1.63;;
18125;SDS011;53956;52.442;13.284;2023-09-19T14:03:04;3.42;;;1.80;;
18125;SDS011;53956;52.442;13.284;2023-09-19T14:05:31;4.88;;;1.90;;
18125;SDS011;53956;52.442;13.284;2023-09-19T14:07:57;5.25;;;2.08;;
18125;SDS011;53956;52.442;13.284;2023-09-19T14:10:24;4.25;;;1.83;;
18125;SDS011;53956;52.442;13.284;2023-09-19T14:12:52;3.67;;;1.58;;
18125;SDS011;53956;52.442;13.284;2023-09-19T14:15:18;3.83;;;1.80;;
18125;SDS011;53956;52.442;13.284;2023-09-19T14:17:57;5.85;;;2.03;;
18125;SDS011;53956;52.442;13.284;2023-09-19T14:20:25;7.57;;;2.08;;
18125;SDS011;53956;52.442;13.284;2023-09-19T14:22:54;7.63;;;1.60;;
18125;SDS011;53956;52.442;13.284;2023-09-19T14:25:21;4.75;;;2.10;;
18125;SDS011;53956;52.442;13.284;2023-09-19T14:27:47;5.40;;;1.70;;
18125;SDS011;53956;52.442;13.284;2023-09-19T14:30:14;6.30;;;2.08;;
18125;SDS011;53956;52.442;13.284;2023-09-19T14:32:41;3.85;;;2.00;;
18125;SDS011;53956;52.442;13.284;2023-09-19T14:35:09;6.00;;;2.05;;
18125;SDS011;53956;52.442;13.284;2023-09-19T14:37:36;5.20;;;2.40;;
18125;SDS011;53956;52.442;13.284;2023-09-19T14:40:05;6.35;;;2.13;;
18125;SDS011;53956;52.442;13.284;2023-09-19T14:42:33;5.60;;;2.00;;
18125;SDS011;53956;52.442;13.284;2023-09-19T14:45:01;7.13;;;2.00;;
18125;SDS011;53956;52.442;13.284;2023-09-19T14:47:29;4.85;;;2.00;;
18125;SDS011;53956;52.442;13.284;2023-09-19T14:49:57;6.13;;;2.00;;
18125;SDS011;53956;52.442;13.284;2023-09-19T14:52:25;11.38;;;2.45;;
18125;SDS011;53956;52.442;13.284;2023-09-19T14:54:53;5.78;;;2.05;;
18125;SDS011;53956;52.442;13.284;2023-09-19T14:57:20;7.22;;;2.38;;
18125;SDS011;53956;52.442;13.284;2023-09-19T14:59:49;5.45;;;1.95;;
18125;SDS011;53956;52.442;13.284;2023-09-19T15:02:16;9.20;;;2.15;;
18125;SDS011;53956;52.442;13.284;2023-09-19T15:04:42;6.45;;;2.20;;